Historyczne dane pomiarowe

Dodano dane terminowe – wersja testowa.

Dane z okresu 1951-2019

Wersja bazy: 1.34 [2019-03-16, lista zmian], aktualizacja planowana na 2019-04-15

Dane meteo z obszaru Polski uzyskane na podstawie danych udostępnionych przez Instytut Meteorologii i Gospodarki Wodnej – Państwowy Instytut Badawczy.

 

Wybierz Datę:    

       

TemperaturaWilgotnośćWiatrCiśnienieOpadyŚniegCzas trwania zjawisk
 Stacja t tx tn tng RH VA  wxwx mslp ppp RRR   cm mm wxwxwxwxwxwxwx
1999-08-14 13.1 17.6 8.0- 82.8- 4.0 3.3---- 0.0------------
1999-08-13 14.2 17.3 11.0- 85.5- 6.0 1.3---- 0.0------------
1999-08-12 14.6 17.1 12.5- 88.3- 7.7 2.3---- 0.0------------
1999-08-11 17.6 21.2 15.4- 91.8- 6.3 1.3---- 33.9------------
1999-08-10 20.6 26.7 16.5- 91.3- 7.3 3.0---- 15.8------------
1999-08-09 21.5 28.5 15.7- 85.8- 3.3 1.7---- 1.9------------
1999-08-08 21.4 26.6 17.0- 79.8- 6.3 3.0---- 0.0------------
1999-08-07 20.1 25.5 14.6- 83.8- 5.3 3.7---- 0.0------------
1999-08-06 19.2 24.0 15.5- 93.8- 7.3 1.7---- 3.1------------
1999-08-05 16.9 22.8 11.0- 86.0- 2.7 1.0---- 1.1------------
1999-08-04 15.6 21.1 10.5- 90.3- 4.0 2.0---- 0.0------------
1999-08-03 14.6 18.5 11.0- 92.8- 7.0 2.0---- 0.0------------
1999-08-02 13.7 17.1 10.8- 96.0- 8.0 2.3---- 3.5------------
1999-08-01 14.5 18.8 12.0- 91.5- 7.7 3.0---- 9.9------------
1999-07-31 16.0 21.5 10.5- 87.3- 4.0 1.3---- 0.8------------
1999-07-30 15.5 20.1 9.6- 83.5- 4.3 2.3---- 0.0------------
1999-07-29 16.0 20.4 12.5- 88.8- 6.0 1.3---- 0.0------------
1999-07-28 16.8 20.3 14.0- 93.8- 6.3 2.0---- 0.4------------
1999-07-27 18.4 22.6 16.1- 95.8- 8.0 1.0---- 52.9------------
1999-07-26 19.6 24.5 14.5- 90.3- 7.7 1.3---- 0.7------------
1999-07-25 16.8 21.9 10.9- 88.8- 4.7 1.0---- 0.0------------
1999-07-24 15.0 18.8 11.5- 89.8- 7.3 1.0---- 0.0------------
1999-07-23 13.9 18.4 11.3- 96.8- 8.0 2.7---- 24.6------------
1999-07-22 19.8 23.9 16.5- 82.0- 6.3 2.7---- 20.0------------
1999-07-21 21.9 27.2 16.5- 80.0- 5.0 2.7---- 0.0------------
1999-07-20 20.3 26.8 14.0- 80.5- 2.0 1.7---- 0.0------------
1999-07-19 18.3 25.2 11.0- 77.3- 2.3 1.3---- 0.0------------
1999-07-18 17.2 22.2 10.0- 86.8- 2.3 1.0---- 0.0------------
1999-07-17 15.7 20.2 10.6- 84.3- 6.3 1.7---- 0.0------------
1999-07-16 15.2 19.8 9.6- 83.3- 4.0 2.0---- 0.0------------
1999-07-15 15.6 19.8 13.5- 93.0- 6.7 3.0---- 0.0------------
1999-07-14 20.2 22.8 17.0- 89.0- 7.7 2.0---- 9.2------------
1999-07-13 19.5 23.8 16.0- 87.0- 6.7 3.3---- 0.0------------
1999-07-12 19.6 24.6 15.5- 89.0- 7.0 2.7---- 0.4------------
1999-07-11 18.2 19.5 16.5- 91.0- 8.0 1.3---- 5.3------------
1999-07-10 17.8 20.4 16.0- 92.3- 8.0 4.3---- 0.0------------
1999-07-09 18.7 22.0 15.5- 95.5- 8.0 2.3---- 0.4------------
1999-07-08 19.4 22.5 17.0- 95.0- 8.0 1.0---- 24.2------------
1999-07-07 21.7 26.8 18.0- 92.5- 6.3 2.0---- 19.3------------
1999-07-06 25.5 29.8 21.0- 71.0- 0.3 4.7---- 0.0------------
1999-07-05 23.7 29.0 17.5- 74.3- 0.3 3.0---- 0.0------------
1999-07-04 21.7 27.6 14.3- 74.3- 0.0 1.7---- 0.0------------
1999-07-03 18.6 22.8 14.0- 81.5- 2.0 2.0---- 0.0------------
1999-07-02 18.8 22.3 15.6- 89.3- 4.7 2.3---- 0.3------------
1999-07-01 18.6 23.0 12.7- 83.0- 4.7 1.7---- 0.0------------
1999-06-30 19.5 22.8 15.0- 84.5- 4.3 1.3---- 0.0------------
1999-06-29 18.0 21.9 14.0- 84.0- 5.7 2.0---- 0.0------------
1999-06-28 18.6 25.4 12.0- 76.5- 5.0 2.7---- 1.4------------
1999-06-27 18.9 24.5 11.6- 75.8- 1.3 1.7---- 0.0------------
1999-06-26 15.5 21.5 8.6- 81.0- 2.0 3.0---- 0.0------------
1999-06-25 11.9 16.6 6.6- 84.5- 2.0 2.7---- 0.0------------
1999-06-24 8.8 9.8 7.4- 95.0- 8.0 1.3---- 2.4------------
1999-06-23 7.8 9.0 6.4- 97.0- 8.0 5.3---- 20.6------------
1999-06-22 10.5 14.9 7.7- 95.5- 8.0 7.3---- 41.2------------
1999-06-21 15.9 20.8 11.4- 96.5- 8.0 1.3---- 61.5------------
1999-06-20 16.7 20.1 13.7- 93.3- 8.0 0.7---- 1.3------------
1999-06-19 15.7 19.2 13.5- 87.8- 7.3 2.0---- 0.0------------
1999-06-18 16.6 18.6 15.0- 95.5- 7.7 1.0---- 21.6------------
1999-06-17 17.1 19.9 15.1- 96.5- 8.0 0.7---- 8.2------------
1999-06-16 16.5 18.5 14.8- 96.5- 7.7 0.3---- 2.6------------
1782.5 ms

 

Źródłem pochodzenia danych jest Instytut Meteorologii i Gospodarki Wodnej – Państwowy Instytut Badawczy. Dane Instytutu Meteorologii i Gospodarki Wodnej – Państwowego Instytutu Badawczego zostały przetworzone.

Dane źródłowe można odnaleźć na stronie https://dane.imgw.pl